WMT5QD LROP-LEXJ
Flight info
| Callsign | WMT5QD |
|---|---|
| Flight time | 3h 14m |
| Altitude | 38000 |
| Route | POLUN DCT VIKBI DCT ELDET DCT LELTI DCT ANASA DCT EVTON DCT CRE DCT LABIN DCT AGOMO DCT CHI DCT KOPER/N0428F370 DCT RONOP/N0428F380 DCT GIGUS DCT BALSI DCT GIPNO DCT RUSIT/N0429F370 DCT ESIDA DCT LERGA DCT MINSO DCT NARAK DCT AGN DCT DIGPO DCT ERAKI DCT PPN DCT MALOB DCT CEGAM M601 BLV |
| Aircraft | A21N/M-SDE2E3FGHIRWXY/LB1 |
Departure
| Time | 2026-04-24 13:07 |
|---|---|
| Airport | Bucharest Henri Coandă International Airport (LROP) |
Arrival
| Time | 2026-04-24 16:21 |
|---|---|
| Airport | Seve Ballesteros-Santander Airport (LEXJ) |
| Time | Latitude | Longitude | Altitude | Speed | Heading |
|---|---|---|---|---|---|
| 2026-04-24 12:43 | 44.56888 | 26.09098 | 319 ft | 0 kts | 173° |
| 2026-04-24 12:54 | 44.56902 | 26.09096 | 319 ft | 2 kts | 173° |
| 2026-04-24 12:54 | 44.56917 | 26.09094 | 319 ft | 2 kts | 173° |
| 2026-04-24 12:54 | 44.56932 | 26.09091 | 319 ft | 2 kts | 173° |
| 2026-04-24 12:55 | 44.56947 | 26.09089 | 319 ft | 2 kts | 195° |
| 2026-04-24 12:55 | 44.56959 | 26.09101 | 319 ft | 2 kts | 239° |
| 2026-04-24 12:55 | 44.56963 | 26.09113 | 319 ft | 1 kts | 263° |
| 2026-04-24 12:55 | 44.56963 | 26.09123 | 319 ft | 0 kts | 264° |
| 2026-04-24 12:57 | 44.56963 | 26.09112 | 319 ft | 3 kts | 264° |
| 2026-04-24 12:57 | 44.56958 | 26.09042 | 319 ft | 10 kts | 264° |
| 2026-04-24 12:58 | 44.56947 | 26.08919 | 319 ft | 13 kts | 263° |
| 2026-04-24 12:58 | 44.56937 | 26.08788 | 319 ft | 13 kts | 263° |
| 2026-04-24 12:58 | 44.56927 | 26.08660 | 319 ft | 13 kts | 264° |
| 2026-04-24 12:58 | 44.56955 | 26.08547 | 319 ft | 12 kts | 332° |
| 2026-04-24 12:59 | 44.57042 | 26.08529 | 319 ft | 12 kts | 354° |
| 2026-04-24 12:59 | 44.57133 | 26.08516 | 319 ft | 13 kts | 354° |
| 2026-04-24 12:59 | 44.57226 | 26.08502 | 319 ft | 13 kts | 354° |
| 2026-04-24 12:59 | 44.57324 | 26.08489 | 319 ft | 14 kts | 355° |
| 2026-04-24 13:00 | 44.57430 | 26.08474 | 319 ft | 15 kts | 356° |
| 2026-04-24 13:00 | 44.57502 | 26.08567 | 319 ft | 16 kts | 83° |
| 2026-04-24 13:00 | 44.57513 | 26.08735 | 319 ft | 17 kts | 84° |
| 2026-04-24 13:00 | 44.57525 | 26.08912 | 319 ft | 18 kts | 83° |
| 2026-04-24 13:01 | 44.57540 | 26.09099 | 319 ft | 19 kts | 83° |
| 2026-04-24 13:01 | 44.57556 | 26.09295 | 319 ft | 20 kts | 84° |
| 2026-04-24 13:01 | 44.57571 | 26.09499 | 319 ft | 21 kts | 84° |
| 2026-04-24 13:01 | 44.57586 | 26.09710 | 319 ft | 21 kts | 84° |
| 2026-04-24 13:02 | 44.57604 | 26.09926 | 319 ft | 22 kts | 84° |
| 2026-04-24 13:02 | 44.57621 | 26.10146 | 319 ft | 22 kts | 84° |
| 2026-04-24 13:02 | 44.57637 | 26.10369 | 319 ft | 23 kts | 84° |
| 2026-04-24 13:02 | 44.57652 | 26.10579 | 319 ft | 23 kts | 84° |
| 2026-04-24 13:03 | 44.57669 | 26.10810 | 319 ft | 23 kts | 84° |
| 2026-04-24 13:03 | 44.57687 | 26.11043 | 319 ft | 24 kts | 83° |
| 2026-04-24 13:03 | 44.57706 | 26.11277 | 319 ft | 24 kts | 84° |
| 2026-04-24 13:03 | 44.57722 | 26.11513 | 319 ft | 24 kts | 84° |
| 2026-04-24 13:04 | 44.57741 | 26.11750 | 319 ft | 24 kts | 83° |
| 2026-04-24 13:04 | 44.57760 | 26.11989 | 319 ft | 24 kts | 84° |
| 2026-04-24 13:04 | 44.57777 | 26.12232 | 319 ft | 24 kts | 84° |
| 2026-04-24 13:04 | 44.57796 | 26.12472 | 319 ft | 24 kts | 84° |
| 2026-04-24 13:05 | 44.57813 | 26.12700 | 319 ft | 17 kts | 84° |
| 2026-04-24 13:05 | 44.57827 | 26.12828 | 319 ft | 12 kts | 62° |
| 2026-04-24 13:05 | 44.57901 | 26.12844 | 319 ft | 12 kts | 326° |
| 2026-04-24 13:05 | 44.57970 | 26.12769 | 319 ft | 12 kts | 321° |
| 2026-04-24 13:06 | 44.57983 | 26.12657 | 319 ft | 12 kts | 264° |
| 2026-04-24 13:06 | 44.57966 | 26.12429 | 319 ft | 51 kts | 264° |
| 2026-04-24 13:06 | 44.57905 | 26.11610 | 319 ft | 116 kts | 263° |
| 2026-04-24 13:06 | 44.57803 | 26.10260 | 343 ft | 164 kts | 264° |
| 2026-04-24 13:07 | 44.57673 | 26.08672 | 927 ft | 163 kts | 262° |
| 2026-04-24 13:07 | 44.57559 | 26.07108 | 1564 ft | 164 kts | 262° |
| 2026-04-24 13:07 | 44.57438 | 26.05527 | 2152 ft | 165 kts | 263° |
| 2026-04-24 13:07 | 44.57300 | 26.03902 | 2482 ft | 176 kts | 264° |
| 2026-04-24 13:08 | 44.57158 | 26.02121 | 2778 ft | 191 kts | 265° |
| 2026-04-24 13:08 | 44.57007 | 26.00198 | 3085 ft | 206 kts | 265° |
| 2026-04-24 13:08 | 44.56856 | 25.98234 | 3380 ft | 222 kts | 266° |
| 2026-04-24 13:09 | 44.56494 | 25.93543 | 4015 ft | 261 kts | 265° |
| 2026-04-24 13:09 | 44.56290 | 25.90980 | 4625 ft | 269 kts | 265° |
| 2026-04-24 13:09 | 44.56083 | 25.88390 | 5408 ft | 270 kts | 265° |
| 2026-04-24 13:09 | 44.55873 | 25.85794 | 6241 ft | 270 kts | 265° |
| 2026-04-24 13:10 | 44.55662 | 25.83183 | 7016 ft | 272 kts | 264° |
| 2026-04-24 13:10 | 44.55183 | 25.80598 | 7749 ft | 278 kts | 250° |
| 2026-04-24 13:10 | 44.54209 | 25.78258 | 8496 ft | 283 kts | 237° |
| 2026-04-24 13:10 | 44.53042 | 25.76060 | 9225 ft | 286 kts | 236° |
| 2026-04-24 13:11 | 44.51831 | 25.73844 | 9939 ft | 290 kts | 236° |
| 2026-04-24 13:11 | 44.50598 | 25.71587 | 10493 ft | 299 kts | 237° |
| 2026-04-24 13:11 | 44.49313 | 25.69218 | 10843 ft | 313 kts | 237° |
| 2026-04-24 13:11 | 44.47990 | 25.66778 | 11428 ft | 319 kts | 237° |
| 2026-04-24 13:12 | 44.46631 | 25.64273 | 12071 ft | 323 kts | 237° |
| 2026-04-24 13:12 | 44.45282 | 25.61790 | 12687 ft | 327 kts | 237° |
| 2026-04-24 13:12 | 44.44364 | 25.60099 | 13095 ft | 329 kts | 238° |
| 2026-04-24 13:12 | 44.42497 | 25.56659 | 13855 ft | 335 kts | 238° |
| 2026-04-24 13:13 | 44.41098 | 25.54081 | 14420 ft | 339 kts | 238° |
| 2026-04-24 13:13 | 44.39664 | 25.51443 | 15004 ft | 343 kts | 238° |
| 2026-04-24 13:13 | 44.38226 | 25.48799 | 15547 ft | 347 kts | 238° |
| 2026-04-24 13:13 | 44.36751 | 25.46093 | 16080 ft | 351 kts | 238° |
| 2026-04-24 13:14 | 44.35281 | 25.43395 | 16608 ft | 354 kts | 238° |
| 2026-04-24 13:14 | 44.33781 | 25.40647 | 17117 ft | 358 kts | 238° |
| 2026-04-24 13:14 | 44.32263 | 25.37866 | 17620 ft | 362 kts | 238° |
| 2026-04-24 13:14 | 44.30731 | 25.35065 | 18112 ft | 366 kts | 238° |
| 2026-04-24 13:15 | 44.29189 | 25.32245 | 18583 ft | 370 kts | 237° |
| 2026-04-24 13:15 | 44.27627 | 25.29392 | 19069 ft | 373 kts | 237° |
| 2026-04-24 13:15 | 44.26574 | 25.27472 | 19411 ft | 375 kts | 237° |
| 2026-04-24 13:15 | 44.24604 | 25.23469 | 20041 ft | 372 kts | 250° |
| 2026-04-24 13:16 | 44.23883 | 25.20115 | 20484 ft | 363 kts | 269° |
| 2026-04-24 13:16 | 44.23858 | 25.16604 | 20953 ft | 358 kts | 279° |
| 2026-04-24 13:16 | 44.24020 | 25.13163 | 21368 ft | 362 kts | 280° |
| 2026-04-24 13:16 | 44.24192 | 25.09644 | 21812 ft | 365 kts | 280° |
| 2026-04-24 13:17 | 44.24355 | 25.06114 | 22216 ft | 369 kts | 280° |
| 2026-04-24 13:17 | 44.24507 | 25.02552 | 22645 ft | 372 kts | 279° |
| 2026-04-24 13:17 | 44.24645 | 24.99126 | 23046 ft | 374 kts | 279° |
| 2026-04-24 13:17 | 44.24786 | 24.95469 | 23463 ft | 377 kts | 279° |
| 2026-04-24 13:18 | 44.24924 | 24.91827 | 23884 ft | 380 kts | 279° |
| 2026-04-24 13:18 | 44.25061 | 24.88141 | 24273 ft | 383 kts | 279° |
| 2026-04-24 13:18 | 44.25195 | 24.84484 | 24658 ft | 385 kts | 279° |
| 2026-04-24 13:18 | 44.25330 | 24.80753 | 25039 ft | 388 kts | 279° |
| 2026-04-24 13:19 | 44.25467 | 24.76957 | 25396 ft | 392 kts | 279° |
| 2026-04-24 13:19 | 44.25601 | 24.73164 | 25727 ft | 395 kts | 279° |
| 2026-04-24 13:19 | 44.25737 | 24.69322 | 26089 ft | 398 kts | 279° |
| 2026-04-24 13:19 | 44.25871 | 24.65493 | 26414 ft | 401 kts | 279° |
| 2026-04-24 13:20 | 44.26006 | 24.61619 | 26748 ft | 403 kts | 279° |
| 2026-04-24 13:20 | 44.26138 | 24.57727 | 27072 ft | 406 kts | 279° |
| 2026-04-24 13:20 | 44.26228 | 24.55086 | 27301 ft | 408 kts | 279° |
| 2026-04-24 13:20 | 44.26401 | 24.49992 | 27720 ft | 411 kts | 279° |
| 2026-04-24 13:21 | 44.26531 | 24.46031 | 28042 ft | 413 kts | 279° |
| 2026-04-24 13:21 | 44.26662 | 24.42016 | 28379 ft | 415 kts | 279° |
| 2026-04-24 13:21 | 44.26792 | 24.38001 | 28687 ft | 418 kts | 279° |
| 2026-04-24 13:21 | 44.26922 | 24.33964 | 28995 ft | 420 kts | 278° |
| 2026-04-24 13:22 | 44.27051 | 24.29879 | 29269 ft | 423 kts | 279° |
| 2026-04-24 13:22 | 44.27179 | 24.25771 | 29549 ft | 426 kts | 279° |
| 2026-04-24 13:22 | 44.27305 | 24.21672 | 29848 ft | 428 kts | 278° |
| 2026-04-24 13:22 | 44.27390 | 24.18875 | 30047 ft | 430 kts | 278° |
| 2026-04-24 13:23 | 44.27557 | 24.13323 | 30423 ft | 433 kts | 279° |
| 2026-04-24 13:23 | 44.27681 | 24.09118 | 30735 ft | 434 kts | 278° |
| 2026-04-24 13:23 | 44.27763 | 24.06322 | 30927 ft | 436 kts | 279° |
| 2026-04-24 13:23 | 44.27927 | 24.00697 | 31282 ft | 439 kts | 278° |
| 2026-04-24 13:24 | 44.28045 | 23.96600 | 31560 ft | 440 kts | 278° |
| 2026-04-24 13:24 | 44.28164 | 23.92375 | 31822 ft | 442 kts | 278° |
| 2026-04-24 13:24 | 44.28283 | 23.88062 | 32070 ft | 445 kts | 278° |
| 2026-04-24 13:24 | 44.28400 | 23.83739 | 32323 ft | 447 kts | 278° |
| 2026-04-24 13:25 | 44.28516 | 23.79395 | 32570 ft | 449 kts | 278° |
| 2026-04-24 13:25 | 44.28632 | 23.75043 | 32811 ft | 451 kts | 278° |
| 2026-04-24 13:25 | 44.28750 | 23.70685 | 33045 ft | 453 kts | 278° |
| 2026-04-24 13:25 | 44.28865 | 23.66297 | 33286 ft | 455 kts | 278° |
| 2026-04-24 13:26 | 44.28978 | 23.61908 | 33532 ft | 456 kts | 278° |
| 2026-04-24 13:26 | 44.29088 | 23.57551 | 33777 ft | 457 kts | 278° |
| 2026-04-24 13:26 | 44.29198 | 23.53079 | 34084 ft | 457 kts | 278° |
| 2026-04-24 13:26 | 44.29303 | 23.48688 | 34423 ft | 456 kts | 278° |
| 2026-04-24 13:27 | 44.29408 | 23.44265 | 34756 ft | 455 kts | 278° |
| 2026-04-24 13:27 | 44.29513 | 23.39905 | 35023 ft | 454 kts | 278° |
| 2026-04-24 13:27 | 44.29617 | 23.35548 | 35261 ft | 453 kts | 278° |
| 2026-04-24 13:27 | 44.29688 | 23.32615 | 35423 ft | 453 kts | 277° |
| 2026-04-24 13:28 | 44.29825 | 23.26734 | 35699 ft | 453 kts | 277° |
| 2026-04-24 13:28 | 44.29923 | 23.22358 | 35913 ft | 453 kts | 277° |
| 2026-04-24 13:28 | 44.30019 | 23.17972 | 36146 ft | 452 kts | 277° |
| 2026-04-24 13:28 | 44.30114 | 23.13590 | 36370 ft | 450 kts | 277° |
| 2026-04-24 13:29 | 44.30204 | 23.09278 | 36585 ft | 449 kts | 277° |
| 2026-04-24 13:29 | 44.30264 | 23.06359 | 36727 ft | 449 kts | 277° |
| 2026-04-24 13:29 | 44.30383 | 23.00585 | 37058 ft | 448 kts | 277° |
| 2026-04-24 13:29 | 44.30466 | 22.96448 | 37256 ft | 447 kts | 277° |
| 2026-04-24 13:30 | 44.30551 | 22.92128 | 37468 ft | 447 kts | 277° |
| 2026-04-24 13:30 | 44.30632 | 22.87841 | 37669 ft | 447 kts | 277° |
| 2026-04-24 13:30 | 44.30713 | 22.83526 | 37891 ft | 446 kts | 277° |
| 2026-04-24 13:30 | 44.30793 | 22.79226 | 37964 ft | 447 kts | 277° |
| 2026-04-24 13:31 | 44.30948 | 22.70580 | 37975 ft | 447 kts | 276° |
| 2026-04-24 13:31 | 44.31095 | 22.61942 | 37980 ft | 447 kts | 276° |
| 2026-04-24 13:32 | 44.31424 | 22.53304 | 37984 ft | 443 kts | 282° |
| 2026-04-24 13:32 | 44.32208 | 22.44817 | 37991 ft | 442 kts | 283° |
| 2026-04-24 13:33 | 44.33023 | 22.36353 | 37989 ft | 441 kts | 283° |
| 2026-04-24 13:33 | 44.33827 | 22.27882 | 38015 ft | 442 kts | 282° |
| 2026-04-24 13:34 | 44.34492 | 22.20780 | 38013 ft | 443 kts | 282° |
| 2026-04-24 13:34 | 44.35397 | 22.11004 | 38023 ft | 444 kts | 282° |
| 2026-04-24 13:35 | 44.36174 | 22.02527 | 38024 ft | 443 kts | 282° |
| 2026-04-24 13:35 | 44.36931 | 21.94205 | 38031 ft | 443 kts | 282° |
| 2026-04-24 13:36 | 44.37702 | 21.85664 | 38034 ft | 443 kts | 282° |
| 2026-04-24 13:36 | 44.38464 | 21.77161 | 38038 ft | 443 kts | 282° |
| 2026-04-24 13:37 | 44.39093 | 21.70068 | 38037 ft | 444 kts | 282° |
| 2026-04-24 13:37 | 44.39968 | 21.60103 | 38032 ft | 444 kts | 282° |
| 2026-04-24 13:38 | 44.40712 | 21.51559 | 38034 ft | 444 kts | 282° |
| 2026-04-24 13:38 | 44.41452 | 21.42992 | 38032 ft | 444 kts | 282° |
| 2026-04-24 13:39 | 44.42061 | 21.35887 | 38031 ft | 444 kts | 282° |
| 2026-04-24 13:39 | 44.42909 | 21.25903 | 38027 ft | 445 kts | 281° |
| 2026-04-24 13:40 | 44.43628 | 21.17343 | 38034 ft | 445 kts | 281° |
| 2026-04-24 13:40 | 44.44327 | 21.08962 | 38033 ft | 445 kts | 281° |
| 2026-04-24 13:41 | 44.45034 | 21.00395 | 38036 ft | 446 kts | 281° |
| 2026-04-24 13:41 | 44.45715 | 20.92060 | 38036 ft | 445 kts | 281° |
| 2026-04-24 13:42 | 44.46411 | 20.83478 | 38035 ft | 446 kts | 281° |
| 2026-04-24 13:42 | 44.47103 | 20.74851 | 38038 ft | 446 kts | 281° |
| 2026-04-24 13:43 | 44.47670 | 20.67713 | 38044 ft | 446 kts | 281° |
| 2026-04-24 13:43 | 44.48451 | 20.57804 | 38047 ft | 446 kts | 281° |
| 2026-04-24 13:44 | 44.48996 | 20.50819 | 38047 ft | 446 kts | 281° |
| 2026-04-24 13:44 | 44.49665 | 20.42160 | 38042 ft | 447 kts | 281° |
| 2026-04-24 13:45 | 44.50326 | 20.33536 | 38047 ft | 447 kts | 280° |
| 2026-04-24 13:45 | 44.51090 | 20.23461 | 38044 ft | 448 kts | 280° |
| 2026-04-24 13:46 | 44.51735 | 20.14830 | 38265 ft | 448 kts | 280° |
| 2026-04-24 13:46 | 44.51950 | 20.11948 | 38151 ft | 448 kts | 280° |
| 2026-04-24 13:46 | 44.52271 | 20.07616 | 38089 ft | 446 kts | 280° |
| 2026-04-24 13:47 | 44.52898 | 19.99076 | 38061 ft | 447 kts | 280° |
| 2026-04-24 13:47 | 44.53627 | 19.89034 | 38055 ft | 447 kts | 280° |
| 2026-04-24 13:48 | 44.54251 | 19.80372 | 38055 ft | 447 kts | 280° |
| 2026-04-24 13:48 | 44.54764 | 19.73139 | 38056 ft | 447 kts | 280° |
| 2026-04-24 13:49 | 44.55370 | 19.64530 | 38059 ft | 448 kts | 280° |
| 2026-04-24 13:49 | 44.56061 | 19.54612 | 38059 ft | 447 kts | 280° |
| 2026-04-24 13:50 | 44.56654 | 19.45974 | 38059 ft | 448 kts | 280° |
| 2026-04-24 13:50 | 44.57240 | 19.37358 | 38058 ft | 448 kts | 280° |
| 2026-04-24 13:51 | 44.57827 | 19.28628 | 38061 ft | 449 kts | 279° |
| 2026-04-24 13:51 | 44.58404 | 19.19958 | 38061 ft | 449 kts | 279° |
| 2026-04-24 13:52 | 44.58879 | 19.12721 | 38066 ft | 449 kts | 279° |
| 2026-04-24 13:52 | 44.59444 | 19.04034 | 38069 ft | 448 kts | 279° |
| 2026-04-24 13:53 | 44.59987 | 18.95584 | 38067 ft | 448 kts | 279° |
| 2026-04-24 13:53 | 44.60628 | 18.85469 | 38076 ft | 450 kts | 279° |
| 2026-04-24 13:54 | 44.61068 | 18.78465 | 38078 ft | 450 kts | 279° |
| 2026-04-24 13:54 | 44.61610 | 18.69746 | 38082 ft | 449 kts | 279° |
| 2026-04-24 13:55 | 44.62141 | 18.61046 | 38079 ft | 449 kts | 279° |
| 2026-04-24 13:55 | 44.62759 | 18.50828 | 38082 ft | 449 kts | 279° |
| 2026-04-24 13:56 | 44.63188 | 18.43611 | 38082 ft | 449 kts | 279° |
| 2026-04-24 13:56 | 44.63790 | 18.33403 | 38086 ft | 450 kts | 278° |
| 2026-04-24 13:57 | 44.64214 | 18.26111 | 38090 ft | 450 kts | 278° |
| 2026-04-24 13:57 | 44.64794 | 18.15956 | 38092 ft | 449 kts | 278° |
| 2026-04-24 13:58 | 44.65287 | 18.07236 | 38090 ft | 450 kts | 278° |
| 2026-04-24 13:58 | 44.65762 | 17.98715 | 38092 ft | 451 kts | 278° |
| 2026-04-24 13:59 | 44.66242 | 17.89969 | 38092 ft | 451 kts | 278° |
| 2026-04-24 13:59 | 44.66717 | 17.81202 | 38095 ft | 451 kts | 278° |
| 2026-04-24 14:00 | 44.67106 | 17.73930 | 38096 ft | 450 kts | 278° |
| 2026-04-24 14:00 | 44.67565 | 17.65207 | 38097 ft | 451 kts | 278° |
| 2026-04-24 14:01 | 44.68022 | 17.56417 | 38099 ft | 451 kts | 278° |
| 2026-04-24 14:01 | 44.68469 | 17.47680 | 38100 ft | 451 kts | 278° |
| 2026-04-24 14:02 | 44.68984 | 17.37448 | 38100 ft | 451 kts | 278° |
| 2026-04-24 14:02 | 44.69346 | 17.30167 | 38100 ft | 451 kts | 277° |
| 2026-04-24 14:03 | 44.69844 | 17.19928 | 38100 ft | 451 kts | 277° |
| 2026-04-24 14:03 | 44.70262 | 17.11166 | 38104 ft | 452 kts | 277° |
| 2026-04-24 14:04 | 44.70606 | 17.03807 | 38102 ft | 452 kts | 277° |
| 2026-04-24 14:04 | 44.71051 | 16.95060 | 38103 ft | 450 kts | 280° |
| 2026-04-24 14:05 | 44.71791 | 16.86358 | 38100 ft | 450 kts | 281° |
| 2026-04-24 14:05 | 44.72555 | 16.77626 | 38095 ft | 449 kts | 281° |
| 2026-04-24 14:06 | 44.73425 | 16.67492 | 38093 ft | 450 kts | 281° |
| 2026-04-24 14:06 | 44.74037 | 16.60260 | 38092 ft | 451 kts | 281° |
| 2026-04-24 14:07 | 44.74770 | 16.51516 | 38093 ft | 451 kts | 281° |
| 2026-04-24 14:07 | 44.75616 | 16.41325 | 38093 ft | 451 kts | 281° |
| 2026-04-24 14:08 | 44.76215 | 16.34046 | 38091 ft | 451 kts | 280° |
| 2026-04-24 14:08 | 44.76926 | 16.25309 | 38090 ft | 451 kts | 280° |
| 2026-04-24 14:09 | 44.77630 | 16.16570 | 38087 ft | 451 kts | 280° |
| 2026-04-24 14:09 | 44.78326 | 16.07857 | 38087 ft | 452 kts | 280° |
| 2026-04-24 14:10 | 44.78990 | 15.99469 | 38085 ft | 452 kts | 280° |
| 2026-04-24 14:10 | 44.79679 | 15.90677 | 38084 ft | 452 kts | 280° |
| 2026-04-24 14:11 | 44.80354 | 15.81957 | 38085 ft | 452 kts | 280° |
| 2026-04-24 14:12 | 44.81362 | 15.68782 | 38088 ft | 452 kts | 280° |
| 2026-04-24 14:12 | 44.82132 | 15.58592 | 38093 ft | 452 kts | 280° |
| 2026-04-24 14:13 | 44.82673 | 15.51372 | 38094 ft | 452 kts | 280° |
| 2026-04-24 14:13 | 44.83313 | 15.42740 | 38097 ft | 452 kts | 280° |
| 2026-04-24 14:14 | 44.83942 | 15.34148 | 38099 ft | 453 kts | 279° |
| 2026-04-24 14:14 | 44.84897 | 15.20913 | 38102 ft | 453 kts | 279° |
| 2026-04-24 14:15 | 44.85524 | 15.12132 | 38103 ft | 453 kts | 279° |
| 2026-04-24 14:15 | 44.86249 | 15.01843 | 38105 ft | 452 kts | 279° |
| 2026-04-24 14:16 | 44.86763 | 14.94478 | 38108 ft | 453 kts | 279° |
| 2026-04-24 14:17 | 44.87672 | 14.81257 | 38107 ft | 453 kts | 279° |
| 2026-04-24 14:17 | 44.88564 | 14.68025 | 38096 ft | 454 kts | 279° |
| 2026-04-24 14:18 | 44.89151 | 14.59178 | 38090 ft | 454 kts | 279° |
| 2026-04-24 14:18 | 44.89731 | 14.50357 | 38084 ft | 453 kts | 279° |
| 2026-04-24 14:19 | 44.90301 | 14.41573 | 38082 ft | 453 kts | 279° |
| 2026-04-24 14:19 | 44.90903 | 14.32739 | 38083 ft | 454 kts | 279° |
| 2026-04-24 14:20 | 44.91507 | 14.23887 | 38086 ft | 454 kts | 279° |
| 2026-04-24 14:20 | 44.92096 | 14.15061 | 38090 ft | 455 kts | 279° |
| 2026-04-24 14:21 | 44.92681 | 14.06171 | 38088 ft | 454 kts | 279° |
| 2026-04-24 14:21 | 44.93252 | 13.97369 | 38095 ft | 454 kts | 279° |
| 2026-04-24 14:22 | 44.93818 | 13.88539 | 38092 ft | 454 kts | 279° |
| 2026-04-24 14:23 | 44.94637 | 13.75564 | 38089 ft | 454 kts | 279° |
| 2026-04-24 14:23 | 44.95191 | 13.66666 | 38086 ft | 454 kts | 279° |
| 2026-04-24 14:24 | 44.95723 | 13.58004 | 38081 ft | 453 kts | 278° |
| 2026-04-24 14:24 | 44.96242 | 13.49431 | 38083 ft | 454 kts | 278° |
| 2026-04-24 14:25 | 44.96756 | 13.40832 | 38080 ft | 454 kts | 278° |
| 2026-04-24 14:25 | 44.97272 | 13.32085 | 38078 ft | 454 kts | 278° |
| 2026-04-24 14:26 | 44.97787 | 13.23221 | 38079 ft | 455 kts | 278° |
| 2026-04-24 14:26 | 44.98294 | 13.14358 | 38080 ft | 454 kts | 278° |
| 2026-04-24 14:27 | 44.98943 | 13.05798 | 38082 ft | 452 kts | 282° |
| 2026-04-24 14:27 | 44.99897 | 12.96998 | 38077 ft | 452 kts | 282° |
| 2026-04-24 14:28 | 45.00822 | 12.88479 | 38080 ft | 453 kts | 282° |
| 2026-04-24 14:28 | 45.01757 | 12.79692 | 38078 ft | 453 kts | 282° |
| 2026-04-24 14:29 | 45.02692 | 12.70907 | 38072 ft | 453 kts | 282° |
| 2026-04-24 14:29 | 45.03616 | 12.62144 | 38071 ft | 452 kts | 282° |
| 2026-04-24 14:30 | 45.04528 | 12.53388 | 38071 ft | 452 kts | 282° |
| 2026-04-24 14:30 | 45.05419 | 12.44780 | 38068 ft | 452 kts | 282° |
| 2026-04-24 14:31 | 45.06317 | 12.36002 | 38068 ft | 453 kts | 282° |
| 2026-04-24 14:31 | 45.07239 | 12.27245 | 38063 ft | 452 kts | 283° |
| 2026-04-24 14:32 | 45.08380 | 12.18525 | 38064 ft | 451 kts | 284° |
| 2026-04-24 14:32 | 45.09538 | 12.09768 | 38064 ft | 452 kts | 284° |
| 2026-04-24 14:33 | 45.10672 | 12.01084 | 38060 ft | 451 kts | 284° |
| 2026-04-24 14:33 | 45.11808 | 11.92311 | 38058 ft | 451 kts | 283° |
| 2026-04-24 14:34 | 45.12928 | 11.83587 | 38060 ft | 451 kts | 283° |
| 2026-04-24 14:34 | 45.14039 | 11.74864 | 38063 ft | 452 kts | 283° |
| 2026-04-24 14:35 | 45.15102 | 11.66136 | 38062 ft | 452 kts | 281° |
| 2026-04-24 14:35 | 45.15610 | 11.57274 | 38057 ft | 454 kts | 275° |
| 2026-04-24 14:36 | 45.15834 | 11.48362 | 38060 ft | 455 kts | 275° |
| 2026-04-24 14:36 | 45.16046 | 11.39425 | 38053 ft | 455 kts | 275° |
| 2026-04-24 14:37 | 45.16257 | 11.30485 | 38054 ft | 455 kts | 274° |
| 2026-04-24 14:37 | 45.16465 | 11.21535 | 38042 ft | 455 kts | 274° |
| 2026-04-24 14:38 | 45.16666 | 11.12592 | 38044 ft | 454 kts | 274° |
| 2026-04-24 14:38 | 45.16861 | 11.03706 | 38041 ft | 455 kts | 274° |
| 2026-04-24 14:39 | 45.17048 | 10.94817 | 38042 ft | 455 kts | 274° |
| 2026-04-24 14:39 | 45.17229 | 10.85905 | 38040 ft | 455 kts | 274° |
| 2026-04-24 14:40 | 45.17403 | 10.76946 | 38044 ft | 454 kts | 274° |
| 2026-04-24 14:40 | 45.17569 | 10.68039 | 38045 ft | 454 kts | 274° |
| 2026-04-24 14:41 | 45.17730 | 10.59139 | 38050 ft | 454 kts | 274° |
| 2026-04-24 14:41 | 45.17883 | 10.50204 | 38047 ft | 454 kts | 274° |
| 2026-04-24 14:42 | 45.18029 | 10.41271 | 38048 ft | 454 kts | 274° |
| 2026-04-24 14:42 | 45.18166 | 10.32421 | 38044 ft | 453 kts | 273° |
| 2026-04-24 14:43 | 45.18299 | 10.23484 | 38045 ft | 453 kts | 273° |
| 2026-04-24 14:43 | 45.18425 | 10.14558 | 38048 ft | 453 kts | 272° |
| 2026-04-24 14:44 | 45.18541 | 10.05797 | 38047 ft | 453 kts | 272° |
| 2026-04-24 14:44 | 45.18650 | 9.96991 | 38043 ft | 453 kts | 272° |
| 2026-04-24 14:45 | 45.18755 | 9.88112 | 38048 ft | 453 kts | 272° |
| 2026-04-24 14:45 | 45.18852 | 9.79180 | 38046 ft | 453 kts | 272° |
| 2026-04-24 14:46 | 45.18944 | 9.70314 | 38048 ft | 452 kts | 272° |
| 2026-04-24 14:46 | 45.19027 | 9.61464 | 38047 ft | 452 kts | 272° |
| 2026-04-24 14:47 | 45.19103 | 9.52525 | 38049 ft | 452 kts | 272° |
| 2026-04-24 14:47 | 45.19172 | 9.43636 | 38050 ft | 453 kts | 272° |
| 2026-04-24 14:48 | 45.19234 | 9.34921 | 38054 ft | 453 kts | 271° |
| 2026-04-24 14:48 | 45.19292 | 9.25846 | 38052 ft | 452 kts | 271° |
| 2026-04-24 14:49 | 45.19341 | 9.16974 | 38050 ft | 452 kts | 271° |
| 2026-04-24 14:49 | 45.19382 | 9.08103 | 38048 ft | 452 kts | 271° |
| 2026-04-24 14:50 | 45.19417 | 8.99225 | 38050 ft | 452 kts | 271° |
| 2026-04-24 14:50 | 45.19445 | 8.90297 | 38052 ft | 452 kts | 271° |
| 2026-04-24 14:51 | 45.19467 | 8.81426 | 38053 ft | 451 kts | 271° |
| 2026-04-24 14:51 | 45.19482 | 8.72593 | 38052 ft | 451 kts | 271° |
| 2026-04-24 14:52 | 45.19490 | 8.63730 | 38055 ft | 451 kts | 271° |
| 2026-04-24 14:52 | 45.19491 | 8.54854 | 38057 ft | 452 kts | 271° |
| 2026-04-24 14:53 | 45.19484 | 8.45870 | 38058 ft | 452 kts | 271° |
| 2026-04-24 14:53 | 45.19470 | 8.36928 | 38062 ft | 451 kts | 271° |
| 2026-04-24 14:54 | 45.19450 | 8.28101 | 38064 ft | 450 kts | 270° |
| 2026-04-24 14:54 | 45.19423 | 8.19242 | 38066 ft | 450 kts | 270° |
| 2026-04-24 14:55 | 45.19390 | 8.10385 | 38064 ft | 451 kts | 270° |
| 2026-04-24 14:55 | 45.19349 | 8.01450 | 38067 ft | 451 kts | 269° |
| 2026-04-24 14:56 | 45.19301 | 7.92555 | 38069 ft | 450 kts | 269° |
| 2026-04-24 14:56 | 45.19246 | 7.83714 | 38070 ft | 450 kts | 269° |
| 2026-04-24 14:57 | 45.19185 | 7.74819 | 38072 ft | 449 kts | 269° |
| 2026-04-24 14:57 | 45.19115 | 7.65916 | 38077 ft | 449 kts | 269° |
| 2026-04-24 14:58 | 45.19040 | 7.56991 | 38080 ft | 450 kts | 269° |
| 2026-04-24 14:58 | 45.18956 | 7.48074 | 38089 ft | 450 kts | 269° |
| 2026-04-24 14:59 | 45.18863 | 7.39122 | 38115 ft | 450 kts | 269° |
| 2026-04-24 14:59 | 45.18765 | 7.30262 | 38162 ft | 448 kts | 268° |
| 2026-04-24 15:00 | 45.18942 | 7.21469 | 38204 ft | 449 kts | 275° |
| 2026-04-24 15:00 | 45.19973 | 7.12672 | 38234 ft | 449 kts | 283° |
| 2026-04-24 15:01 | 45.21837 | 7.04273 | 38244 ft | 450 kts | 291° |
| 2026-04-24 15:01 | 45.24100 | 6.96393 | 38240 ft | 450 kts | 292° |
| 2026-04-24 15:02 | 45.26479 | 6.88194 | 38245 ft | 450 kts | 292° |
| 2026-04-24 15:02 | 45.28839 | 6.79983 | 38247 ft | 450 kts | 291° |
| 2026-04-24 15:03 | 45.31206 | 6.71685 | 38243 ft | 450 kts | 291° |
| 2026-04-24 15:03 | 45.33579 | 6.63328 | 38240 ft | 449 kts | 291° |
| 2026-04-24 15:04 | 45.35892 | 6.55153 | 38241 ft | 449 kts | 291° |
| 2026-04-24 15:04 | 45.38201 | 6.46918 | 38237 ft | 449 kts | 289° |
| 2026-04-24 15:05 | 45.40026 | 6.38674 | 38232 ft | 447 kts | 284° |
| 2026-04-24 15:05 | 45.41583 | 6.30184 | 38225 ft | 447 kts | 283° |
| 2026-04-24 15:06 | 45.43137 | 6.21614 | 38218 ft | 447 kts | 282° |
| 2026-04-24 15:06 | 45.44693 | 6.13034 | 38205 ft | 446 kts | 282° |
| 2026-04-24 15:07 | 45.46217 | 6.04594 | 38182 ft | 446 kts | 282° |
| 2026-04-24 15:07 | 45.47728 | 5.96199 | 38149 ft | 445 kts | 283° |
| 2026-04-24 15:08 | 45.49358 | 5.87676 | 38130 ft | 446 kts | 283° |
| 2026-04-24 15:08 | 45.51026 | 5.79071 | 38134 ft | 446 kts | 283° |
| 2026-04-24 15:09 | 45.52660 | 5.70539 | 38133 ft | 446 kts | 283° |
| 2026-04-24 15:09 | 45.54294 | 5.61934 | 38129 ft | 446 kts | 283° |
| 2026-04-24 15:10 | 45.55883 | 5.53528 | 38129 ft | 446 kts | 284° |
| 2026-04-24 15:10 | 45.57413 | 5.44882 | 38125 ft | 445 kts | 282° |
| 2026-04-24 15:11 | 45.58878 | 5.36252 | 38124 ft | 445 kts | 282° |
| 2026-04-24 15:11 | 45.60307 | 5.27831 | 38124 ft | 444 kts | 281° |
| 2026-04-24 15:12 | 45.61754 | 5.19279 | 38122 ft | 444 kts | 281° |
| 2026-04-24 15:12 | 45.63921 | 5.06379 | 38117 ft | 444 kts | 281° |
| 2026-04-24 15:13 | 45.65157 | 4.98043 | 38111 ft | 442 kts | 275° |
| 2026-04-24 15:13 | 45.65174 | 4.89292 | 38109 ft | 438 kts | 261° |
| 2026-04-24 15:14 | 45.63731 | 4.80798 | 38112 ft | 435 kts | 248° |
| 2026-04-24 15:14 | 45.61171 | 4.73029 | 38100 ft | 434 kts | 242° |
| 2026-04-24 15:15 | 45.58464 | 4.65485 | 38103 ft | 433 kts | 242° |
| 2026-04-24 15:15 | 45.55732 | 4.57849 | 38103 ft | 432 kts | 242° |
| 2026-04-24 15:16 | 45.52964 | 4.50098 | 38102 ft | 432 kts | 243° |
| 2026-04-24 15:16 | 45.50225 | 4.42446 | 38106 ft | 431 kts | 243° |
| 2026-04-24 15:17 | 45.47547 | 4.34969 | 38107 ft | 433 kts | 242° |
| 2026-04-24 15:17 | 45.44792 | 4.27310 | 38113 ft | 434 kts | 242° |
| 2026-04-24 15:18 | 45.41991 | 4.19564 | 38109 ft | 435 kts | 242° |
| 2026-04-24 15:18 | 45.39216 | 4.11914 | 38118 ft | 435 kts | 243° |
| 2026-04-24 15:19 | 45.36429 | 4.04255 | 38123 ft | 435 kts | 243° |
| 2026-04-24 15:19 | 45.33728 | 3.96843 | 38127 ft | 435 kts | 243° |
| 2026-04-24 15:20 | 45.30929 | 3.89177 | 38136 ft | 438 kts | 243° |
| 2026-04-24 15:20 | 45.28117 | 3.81506 | 38146 ft | 441 kts | 243° |
| 2026-04-24 15:21 | 45.25239 | 3.74163 | 38154 ft | 439 kts | 238° |
| 2026-04-24 15:21 | 45.21820 | 3.67029 | 38152 ft | 438 kts | 236° |
| 2026-04-24 15:22 | 45.18338 | 3.59985 | 38153 ft | 437 kts | 236° |
| 2026-04-24 15:23 | 45.13102 | 3.49404 | 38150 ft | 437 kts | 236° |
| 2026-04-24 15:23 | 45.07941 | 3.39001 | 38151 ft | 437 kts | 236° |
| 2026-04-24 15:25 | 44.99291 | 3.21657 | 38155 ft | 435 kts | 235° |
| 2026-04-24 15:26 | 44.90523 | 3.04185 | 38154 ft | 437 kts | 236° |
| 2026-04-24 15:27 | 44.80310 | 2.83058 | 38151 ft | 435 kts | 238° |
| 2026-04-24 15:29 | 44.70547 | 2.61932 | 38132 ft | 436 kts | 238° |
| 2026-04-24 15:31 | 44.58978 | 2.37109 | 38111 ft | 435 kts | 238° |
| 2026-04-24 15:33 | 44.45784 | 2.09061 | 38085 ft | 435 kts | 237° |
| 2026-04-24 15:34 | 44.37580 | 1.91758 | 38085 ft | 435 kts | 237° |
| 2026-04-24 15:35 | 44.29278 | 1.74357 | 38083 ft | 434 kts | 238° |
| 2026-04-24 15:36 | 44.26029 | 1.67295 | 38084 ft | 434 kts | 239° |
| 2026-04-24 15:36 | 44.21178 | 1.56700 | 38080 ft | 434 kts | 238° |
| 2026-04-24 15:37 | 44.17913 | 1.49611 | 38078 ft | 433 kts | 238° |
| 2026-04-24 15:37 | 44.14662 | 1.42580 | 38075 ft | 434 kts | 238° |
| 2026-04-24 15:38 | 44.11395 | 1.35533 | 38075 ft | 433 kts | 238° |
| 2026-04-24 15:38 | 44.08115 | 1.28479 | 38074 ft | 433 kts | 237° |
| 2026-04-24 15:39 | 44.04848 | 1.21467 | 38072 ft | 433 kts | 237° |
| 2026-04-24 15:39 | 44.01583 | 1.14477 | 38070 ft | 432 kts | 237° |
| 2026-04-24 15:40 | 43.98299 | 1.07462 | 38068 ft | 432 kts | 237° |
| 2026-04-24 15:40 | 43.95026 | 1.00490 | 38069 ft | 432 kts | 237° |
| 2026-04-24 15:41 | 43.91762 | 0.93559 | 38068 ft | 432 kts | 237° |
| 2026-04-24 15:41 | 43.88439 | 0.86970 | 38070 ft | 431 kts | 232° |
| 2026-04-24 15:42 | 43.84528 | 0.80645 | 38073 ft | 431 kts | 229° |
| 2026-04-24 15:42 | 43.80599 | 0.74574 | 38074 ft | 431 kts | 229° |
| 2026-04-24 15:43 | 43.76626 | 0.68446 | 38072 ft | 431 kts | 229° |
| 2026-04-24 15:43 | 43.72623 | 0.62281 | 38076 ft | 431 kts | 228° |
| 2026-04-24 15:44 | 43.68610 | 0.56116 | 38078 ft | 431 kts | 228° |
| 2026-04-24 15:44 | 43.64675 | 0.50086 | 38075 ft | 431 kts | 228° |
| 2026-04-24 15:45 | 43.60749 | 0.44084 | 38079 ft | 431 kts | 228° |
| 2026-04-24 15:45 | 43.56730 | 0.37951 | 38079 ft | 430 kts | 228° |
| 2026-04-24 15:46 | 43.52980 | 0.31745 | 38080 ft | 430 kts | 232° |
| 2026-04-24 15:46 | 43.49678 | 0.24903 | 38084 ft | 430 kts | 239° |
| 2026-04-24 15:47 | 43.46903 | 0.17768 | 38081 ft | 432 kts | 242° |
| 2026-04-24 15:47 | 43.44138 | 0.10443 | 38080 ft | 432 kts | 241° |
| 2026-04-24 15:48 | 43.41376 | 0.03154 | 38080 ft | 432 kts | 241° |
| 2026-04-24 15:48 | 43.38602 | -0.04141 | 38080 ft | 432 kts | 241° |
| 2026-04-24 15:49 | 43.35804 | -0.11482 | 38088 ft | 432 kts | 241° |
| 2026-04-24 15:49 | 43.33020 | -0.18769 | 38085 ft | 431 kts | 241° |
| 2026-04-24 15:50 | 43.30245 | -0.26012 | 38092 ft | 431 kts | 241° |
| 2026-04-24 15:50 | 43.27454 | -0.33277 | 38085 ft | 431 kts | 241° |
| 2026-04-24 15:51 | 43.24648 | -0.40564 | 38091 ft | 432 kts | 241° |
| 2026-04-24 15:51 | 43.21845 | -0.47828 | 38096 ft | 432 kts | 241° |
| 2026-04-24 15:52 | 43.19041 | -0.55068 | 38108 ft | 432 kts | 241° |
| 2026-04-24 15:52 | 43.16224 | -0.62326 | 38124 ft | 432 kts | 241° |
| 2026-04-24 15:53 | 43.13397 | -0.69590 | 38134 ft | 432 kts | 240° |
| 2026-04-24 15:53 | 43.10584 | -0.76802 | 38135 ft | 432 kts | 240° |
| 2026-04-24 15:54 | 43.07755 | -0.84037 | 38137 ft | 431 kts | 240° |
| 2026-04-24 15:54 | 43.04927 | -0.91242 | 38144 ft | 432 kts | 240° |
| 2026-04-24 15:55 | 43.02094 | -0.98448 | 38147 ft | 432 kts | 240° |
| 2026-04-24 15:55 | 42.99250 | -1.05662 | 38154 ft | 433 kts | 240° |
| 2026-04-24 15:56 | 42.96381 | -1.12906 | 38144 ft | 432 kts | 240° |
| 2026-04-24 15:56 | 42.93522 | -1.20093 | 38139 ft | 432 kts | 240° |
| 2026-04-24 15:57 | 42.90667 | -1.27248 | 38134 ft | 432 kts | 240° |
| 2026-04-24 15:57 | 42.87797 | -1.34423 | 38118 ft | 431 kts | 240° |
| 2026-04-24 15:58 | 42.86347 | -1.38042 | 37727 ft | 431 kts | 240° |
| 2026-04-24 15:58 | 42.84917 | -1.41607 | 36871 ft | 435 kts | 240° |
| 2026-04-24 15:58 | 42.83454 | -1.45247 | 35840 ft | 441 kts | 239° |
| 2026-04-24 15:58 | 42.81971 | -1.48932 | 34818 ft | 446 kts | 239° |
| 2026-04-24 15:59 | 42.80483 | -1.52626 | 33838 ft | 450 kts | 239° |
| 2026-04-24 15:59 | 42.78985 | -1.56331 | 32938 ft | 452 kts | 239° |
| 2026-04-24 15:59 | 42.77468 | -1.60082 | 32327 ft | 447 kts | 240° |
| 2026-04-24 15:59 | 42.75979 | -1.63783 | 31763 ft | 442 kts | 241° |
| 2026-04-24 16:00 | 42.74936 | -1.67624 | 31089 ft | 443 kts | 258° |
| 2026-04-24 16:00 | 42.74924 | -1.71788 | 30462 ft | 443 kts | 277° |
| 2026-04-24 16:00 | 42.75923 | -1.75746 | 29887 ft | 441 kts | 296° |
| 2026-04-24 16:00 | 42.77547 | -1.79240 | 29359 ft | 437 kts | 301° |
| 2026-04-24 16:01 | 42.79216 | -1.82679 | 28760 ft | 434 kts | 301° |
| 2026-04-24 16:01 | 42.80858 | -1.86101 | 28167 ft | 431 kts | 301° |
| 2026-04-24 16:01 | 42.82458 | -1.89483 | 27605 ft | 427 kts | 301° |
| 2026-04-24 16:01 | 42.84068 | -1.92910 | 27034 ft | 424 kts | 301° |
| 2026-04-24 16:02 | 42.85639 | -1.96263 | 26471 ft | 421 kts | 301° |
| 2026-04-24 16:02 | 42.87205 | -1.99603 | 25901 ft | 418 kts | 301° |
| 2026-04-24 16:02 | 42.88770 | -2.02948 | 25339 ft | 415 kts | 301° |
| 2026-04-24 16:02 | 42.90308 | -2.06245 | 24800 ft | 411 kts | 301° |
| 2026-04-24 16:03 | 42.91772 | -2.09383 | 24270 ft | 408 kts | 301° |
| 2026-04-24 16:03 | 42.93276 | -2.12617 | 23738 ft | 405 kts | 301° |
| 2026-04-24 16:03 | 42.94776 | -2.15847 | 23211 ft | 401 kts | 301° |
| 2026-04-24 16:03 | 42.96254 | -2.19030 | 22693 ft | 397 kts | 301° |
| 2026-04-24 16:04 | 42.97722 | -2.22192 | 22170 ft | 394 kts | 301° |
| 2026-04-24 16:04 | 42.99196 | -2.25356 | 21649 ft | 391 kts | 301° |
| 2026-04-24 16:04 | 43.00644 | -2.28430 | 21160 ft | 387 kts | 301° |
| 2026-04-24 16:04 | 43.02114 | -2.31546 | 20655 ft | 384 kts | 301° |
| 2026-04-24 16:05 | 43.04975 | -2.37636 | 19524 ft | 382 kts | 301° |
| 2026-04-24 16:05 | 43.06399 | -2.40674 | 19036 ft | 378 kts | 301° |
| 2026-04-24 16:06 | 43.09202 | -2.46670 | 18130 ft | 370 kts | 301° |
| 2026-04-24 16:06 | 43.10528 | -2.49513 | 17704 ft | 366 kts | 301° |
| 2026-04-24 16:06 | 43.13234 | -2.55322 | 16867 ft | 358 kts | 301° |
| 2026-04-24 16:07 | 43.14562 | -2.58175 | 16445 ft | 355 kts | 301° |
| 2026-04-24 16:07 | 43.15890 | -2.61034 | 16009 ft | 352 kts | 301° |
| 2026-04-24 16:07 | 43.18470 | -2.66595 | 15163 ft | 346 kts | 300° |
| 2026-04-24 16:08 | 43.19759 | -2.69381 | 14728 ft | 343 kts | 300° |
| 2026-04-24 16:08 | 43.22289 | -2.74852 | 13901 ft | 337 kts | 300° |
| 2026-04-24 16:09 | 43.24762 | -2.80213 | 13074 ft | 332 kts | 300° |
| 2026-04-24 16:09 | 43.25997 | -2.82895 | 12657 ft | 330 kts | 300° |
| 2026-04-24 16:09 | 43.27219 | -2.85549 | 12234 ft | 328 kts | 300° |
| 2026-04-24 16:09 | 43.28427 | -2.88173 | 11815 ft | 325 kts | 300° |
| 2026-04-24 16:10 | 43.30377 | -2.96672 | 10533 ft | 313 kts | 266° |
| 2026-04-24 16:11 | 43.30180 | -3.02492 | 10037 ft | 296 kts | 266° |
| 2026-04-24 16:11 | 43.30083 | -3.05281 | 9660 ft | 293 kts | 266° |
| 2026-04-24 16:11 | 43.29993 | -3.08051 | 9366 ft | 287 kts | 266° |
| 2026-04-24 16:12 | 43.29827 | -3.13321 | 8579 ft | 285 kts | 266° |
| 2026-04-24 16:12 | 43.29744 | -3.16015 | 8180 ft | 283 kts | 266° |
| 2026-04-24 16:12 | 43.29580 | -3.21378 | 7421 ft | 279 kts | 266° |
| 2026-04-24 16:13 | 43.29499 | -3.24053 | 7081 ft | 277 kts | 267° |
| 2026-04-24 16:13 | 43.29337 | -3.29279 | 6400 ft | 272 kts | 267° |
| 2026-04-24 16:14 | 43.29930 | -3.34334 | 5719 ft | 269 kts | 290° |
| 2026-04-24 16:14 | 43.30580 | -3.36737 | 5394 ft | 267 kts | 292° |
| 2026-04-24 16:14 | 43.31831 | -3.41212 | 5168 ft | 246 kts | 292° |
| 2026-04-24 16:15 | 43.32221 | -3.42630 | 5169 ft | 236 kts | 292° |
| 2026-04-24 16:15 | 43.33467 | -3.47458 | 4643 ft | 226 kts | 290° |
| 2026-04-24 16:16 | 43.34504 | -3.51480 | 4073 ft | 222 kts | 292° |
| 2026-04-24 16:16 | 43.35081 | -3.53469 | 3800 ft | 219 kts | 293° |
| 2026-04-24 16:17 | 43.36638 | -3.59124 | 3194 ft | 203 kts | 291° |
| 2026-04-24 16:17 | 43.37585 | -3.62733 | 2741 ft | 195 kts | 292° |
| 2026-04-24 16:18 | 43.38481 | -3.66136 | 2224 ft | 184 kts | 292° |
| 2026-04-24 16:18 | 43.39339 | -3.69373 | 1720 ft | 175 kts | 292° |
| 2026-04-24 16:18 | 43.39739 | -3.70893 | 1510 ft | 158 kts | 291° |
| 2026-04-24 16:19 | 43.40424 | -3.73455 | 1113 ft | 132 kts | 291° |
| 2026-04-24 16:19 | 43.40734 | -3.74643 | 939 ft | 131 kts | 291° |
| 2026-04-24 16:20 | 43.41372 | -3.76989 | 630 ft | 130 kts | 290° |
| 2026-04-24 16:20 | 43.41991 | -3.79333 | 261 ft | 129 kts | 291° |
| 2026-04-24 16:20 | 43.42300 | -3.80487 | 90 ft | 128 kts | 289° |
| 2026-04-24 16:21 | 43.42716 | -3.82034 | 20 ft | 35 kts | 289° |
| 2026-04-24 16:21 | 43.42739 | -3.82209 | 20 ft | 15 kts | 237° |
| 2026-04-24 16:21 | 43.42658 | -3.82263 | 20 ft | 12 kts | 200° |
| 2026-04-24 16:22 | 43.42576 | -3.82305 | 20 ft | 12 kts | 200° |
| 2026-04-24 16:22 | 43.42452 | -3.82348 | 21 ft | 5 kts | 137° |
| 2026-04-24 16:22 | 43.42432 | -3.82300 | 21 ft | 4 kts | 131° |
| 2026-04-24 16:23 | 43.42408 | -3.82283 | 21 ft | 4 kts | 154° |
| 2026-04-24 16:23 | 43.42392 | -3.82278 | 21 ft | 1 kts | 205° |
| 2026-04-24 16:23 | 43.42388 | -3.82288 | 21 ft | 1 kts | 240° |
| 2026-04-24 16:24 | 43.42385 | -3.82294 | 21 ft | 0 kts | 236° |